Inversion Research: Above Escarpment

*Note: All times are displayed in the local standard time of the station location.
**Rain - Equipment is designed to accurately record liquid precipitation; under conditions when precipitation is not in liquid form, the data displayed may not properly reflect rainfall values.

Date Max Temp
(°C)
Min Temp
(°C)
Avg Temp
(°C)
Rain (mm) Avg RH (%)
Fri, Jun 22, 2018 21.9 11.6 16.8 - 78.2
Thu, Jun 21, 2018 22.7 13.7 18.1 - 69.6
Wed, Jun 20, 2018 24.4 14.4 18.7 - 81.3
Tue, Jun 19, 2018 23.5 15.7 19.5 - 79.5
Mon, Jun 18, 2018 32.2 21.2 25.3 - 87.8
Sun, Jun 17, 2018 31.5 15.4 24.3 - 64.6
Sat, Jun 16, 2018 28.7 13.4 21.6 - 59.2
DateTime Avg Temp (°C) Rain (mm) RH (%)
Sat, Jun 23, 2018 09:00 17.0 - 100.0
Sat, Jun 23, 2018 08:00 16.7 - 100.0
Sat, Jun 23, 2018 07:00 17.0 - 100.0
Sat, Jun 23, 2018 06:00 17.3 - 100.0
Sat, Jun 23, 2018 05:00 17.4 - 100.0
Sat, Jun 23, 2018 04:00 17.5 - 100.0
Sat, Jun 23, 2018 03:00 17.6 - 100.0
Sat, Jun 23, 2018 02:00 17.2 - 100.0
Sat, Jun 23, 2018 01:00 17.0 - 100.0
Sat, Jun 23, 2018 00:00 17.5 - 100.0
Fri, Jun 22, 2018 23:00 17.6 - 100.0
Fri, Jun 22, 2018 22:00 18.5 - 97.5
Fri, Jun 22, 2018 21:00 18.1 - 100.0
Fri, Jun 22, 2018 20:00 18.0 - 97.8
Fri, Jun 22, 2018 19:00 18.5 - 93.0
Fri, Jun 22, 2018 18:00 17.6 - 95.3
Fri, Jun 22, 2018 17:00 16.1 - 96.0
Fri, Jun 22, 2018 16:00 18.3 - 78.5
Fri, Jun 22, 2018 15:00 19.7 - 71.3
Fri, Jun 22, 2018 14:00 20.6 - 66.3
Fri, Jun 22, 2018 13:00 21.1 - 66.5
Fri, Jun 22, 2018 12:00 20.2 - 65.0
Fri, Jun 22, 2018 11:00 20.3 - 57.3
Fri, Jun 22, 2018 10:00 19.0 - 55.5
Fri, Jun 22, 2018 09:00 16.8 - 61.8
Fri, Jun 22, 2018 08:00 15.8 - 64.3
Fri, Jun 22, 2018 07:00 12.9 - 75.0
Fri, Jun 22, 2018 06:00 12.5 - 74.8
Fri, Jun 22, 2018 05:00 12.5 - 74.5
Fri, Jun 22, 2018 04:00 13.2 - 71.0
Fri, Jun 22, 2018 03:00 12.4 - 74.5
Fri, Jun 22, 2018 02:00 13.2 - 70.5
Fri, Jun 22, 2018 01:00 12.8 - 71.5
Fri, Jun 22, 2018 00:00 15.4 - 57.3
Thu, Jun 21, 2018 23:00 15.4 - 57.0
Thu, Jun 21, 2018 22:00 17.0 - 51.5
Thu, Jun 21, 2018 21:00 19.3 - 43.5
Thu, Jun 21, 2018 20:00 20.7 - 39.8
Thu, Jun 21, 2018 19:00 22.1 - 40.5
Thu, Jun 21, 2018 18:00 22.6 - 40.3
Thu, Jun 21, 2018 17:00 22.0 - 45.3
Thu, Jun 21, 2018 16:00 20.2 - 61.5
Thu, Jun 21, 2018 15:00 19.1 - 65.8
Thu, Jun 21, 2018 14:00 19.3 - 67.5
Thu, Jun 21, 2018 13:00 19.3 - 68.8
Thu, Jun 21, 2018 12:00 19.1 - 70.5
Thu, Jun 21, 2018 11:00 18.8 - 72.8
Thu, Jun 21, 2018 10:00 18.3 - 73.3


asterix Register now to access more data! asterix